createdAt,value
2022-09-23T00:02:13.613Z,99858.09
2022-09-23T00:04:42.341Z,99857.25
2022-09-23T00:07:10.763Z,99860.84
2022-09-23T00:09:39.069Z,99858.38
2022-09-23T00:12:09.161Z,99857.53
2022-09-23T00:14:40.051Z,99859.31
2022-09-23T00:17:08.342Z,99860.09
2022-09-23T00:19:39.540Z,99862.72
2022-09-23T00:22:08.905Z,99856.59
2022-09-23T00:24:37.422Z,99862.63
2022-09-23T00:27:05.946Z,99854.78
2022-09-23T00:29:34.464Z,99851.38
2022-09-23T00:32:03.232Z,99852.16
2022-09-23T00:34:31.642Z,99857.34
2022-09-23T00:37:01.222Z,99855.56
2022-09-23T00:39:29.422Z,99850.25
2022-09-23T00:41:57.692Z,99851.06
2022-09-23T00:44:46.403Z,99851.06
2022-09-23T00:47:20.601Z,99848.41
2022-09-23T00:49:52.353Z,99850.13
2022-09-23T00:52:25.533Z,99850.13
2022-09-23T00:54:58.031Z,99845.69
2022-09-23T00:57:27.282Z,99847.38
2022-09-23T00:59:55.880Z,99849.13
2022-09-23T01:02:24.284Z,99848.22
2022-09-23T01:04:53.143Z,99844.72
2022-09-23T01:07:22.820Z,99849.13
2022-09-23T01:09:51.502Z,99847.22
2022-09-23T01:12:36.848Z,99841.09
2022-09-23T01:15:14.312Z,99853.47
2022-09-23T01:17:52.683Z,99843.13
2022-09-23T01:20:43.074Z,99841.56
2022-09-23T01:23:36.452Z,99841.72
2022-09-23T01:26:28.310Z,99845.28
2022-09-23T01:29:16.252Z,99850.59
2022-09-23T01:31:51.838Z,99844.53
2022-09-23T01:34:26.395Z,99849.06
2022-09-23T01:37:03.453Z,99849.06
2022-09-23T01:39:38.625Z,99852.66
2022-09-23T01:42:17.362Z,99844.84
2022-09-23T01:44:50.985Z,99849.38
2022-09-23T01:47:24.312Z,99846.81
2022-09-23T01:49:57.411Z,99842.38
2022-09-23T01:52:29.541Z,99843.28
2022-09-23T01:55:05.043Z,99841.59
2022-09-23T01:57:37.282Z,99842.63
2022-09-23T02:00:11.332Z,99839.13
2022-09-23T02:02:50.122Z,99840.13
2022-09-23T02:05:24.862Z,99840.13
2022-09-23T02:07:59.953Z,99837.56
2022-09-23T02:10:33.921Z,99834.16
2022-09-23T02:13:06.633Z,99837.75
2022-09-23T02:15:38.623Z,99843.19
2022-09-23T02:18:14.255Z,99836.19
2022-09-23T02:20:42.870Z,99844.19
2022-09-23T02:23:14.423Z,99837.97
2022-09-23T02:25:55.526Z,99841.66
2022-09-23T02:28:32.742Z,99845.06
2022-09-23T02:31:10.934Z,99848.63
2022-09-23T02:33:46.756Z,99852.31
2022-09-23T02:36:26.243Z,99844.44
2022-09-23T02:38:58.722Z,99845.38
2022-09-23T02:41:33.912Z,99850.66
2022-09-23T02:44:07.680Z,99853.47
2022-09-23T02:46:37.388Z,99854.41
2022-09-23T02:49:12.822Z,99854.47
2022-09-23T02:51:42.852Z,99856.25
2022-09-23T02:54:15.633Z,99850.22
2022-09-23T02:56:44.293Z,99849.34
2022-09-23T02:59:13.431Z,99852.09
2022-09-23T03:01:52.988Z,99859.22
2022-09-23T03:04:31.963Z,99851.47
2022-09-23T03:07:06.227Z,99848.81
2022-09-23T03:09:38.722Z,99845.47
2022-09-23T03:12:17.012Z,99846.63
2022-09-23T03:14:54.723Z,99844.25
2022-09-23T03:17:30.203Z,99842.59
2022-09-23T03:20:04.311Z,99848.03
2022-09-23T03:22:37.023Z,99847.28
2022-09-23T03:25:09.591Z,99846.34
2022-09-23T03:27:41.831Z,99842.00
2022-09-23T03:30:11.602Z,99852.56
2022-09-23T03:32:43.963Z,99839.34
2022-09-23T03:35:15.451Z,99851.63
2022-09-23T03:37:50.902Z,99855.19
2022-09-23T03:40:23.293Z,99855.13
2022-09-23T03:42:53.402Z,99851.63
2022-09-23T03:45:26.105Z,99852.38
2022-09-23T03:47:54.872Z,99846.25
2022-09-23T03:50:24.534Z,99855.03
2022-09-23T03:52:52.653Z,99852.38
2022-09-23T03:55:21.612Z,99862.94
2022-09-23T03:57:49.922Z,99866.53
2022-09-23T04:00:18.203Z,99862.19
2022-09-23T04:02:46.612Z,99863.03
2022-09-23T04:05:15.094Z,99866.53
2022-09-23T04:07:44.753Z,99853.41
2022-09-23T04:10:12.962Z,99856.91
2022-09-23T04:12:41.291Z,99844.63
2022-09-23T04:15:09.939Z,99851.53
2022-09-23T04:17:38.141Z,99857.66
2022-09-23T04:20:06.913Z,99862.19
2022-09-23T04:22:35.702Z,99845.41
2022-09-23T04:25:05.502Z,99848.97
2022-09-23T04:27:37.587Z,99848.97
2022-09-23T04:30:07.180Z,99859.69
2022-09-23T04:32:35.532Z,99863.25
2022-09-23T04:35:03.589Z,99866.84
2022-09-23T04:37:31.797Z,99860.63
2022-09-23T04:40:00.101Z,99862.41
2022-09-23T04:42:31.294Z,99866.84
2022-09-23T04:44:59.472Z,99873.91
2022-09-23T04:47:28.282Z,99866.16
2022-09-23T04:49:59.753Z,99867.16
2022-09-23T04:52:28.609Z,99874.28
2022-09-23T04:54:56.923Z,99880.44
2022-09-23T04:57:25.142Z,99874.38
2022-09-23T04:59:56.957Z,99883.28
2022-09-23T05:02:25.455Z,99879.88
2022-09-23T05:04:53.766Z,99884.44
2022-09-23T05:07:22.111Z,99879.16
2022-09-23T05:09:50.109Z,99875.66
2022-09-23T05:12:18.442Z,99880.19
2022-09-23T05:14:46.642Z,99884.81
2022-09-23T05:17:16.162Z,99883.19
2022-09-23T05:19:44.493Z,99885.97
2022-09-23T05:22:12.522Z,99885.19
2022-09-23T05:24:40.511Z,99882.63
2022-09-23T05:27:08.701Z,99881.63
2022-09-23T05:30:05.715Z,99886.06
2022-09-23T05:32:35.498Z,99891.31
2022-09-23T05:35:04.600Z,99892.19
2022-09-23T05:37:33.528Z,99897.63
2022-09-23T05:40:01.784Z,99893.50
2022-09-23T05:42:30.257Z,99890.94
2022-09-23T05:44:58.458Z,99888.34
2022-09-23T05:47:26.955Z,99897.19
2022-09-23T05:49:59.911Z,99892.00
2022-09-23T05:52:29.127Z,99892.19
2022-09-23T05:54:57.408Z,99888.78
2022-09-23T05:57:25.627Z,99897.72
2022-09-23T05:59:53.837Z,99889.94
2022-09-23T06:02:22.083Z,99894.50
2022-09-23T06:04:50.486Z,99898.09
2022-09-23T06:07:20.116Z,99897.28
2022-09-23T06:09:48.588Z,99900.00
2022-09-23T06:12:16.871Z,99902.72
2022-09-23T06:14:45.088Z,99908.94
2022-09-23T06:17:13.488Z,99907.31
2022-09-23T06:19:41.708Z,99906.47
2022-09-23T06:22:11.130Z,99905.72
2022-09-23T06:24:40.787Z,99903.09
2022-09-23T06:27:11.008Z,99901.34
2022-09-23T06:29:40.117Z,99912.59
2022-09-23T06:32:08.773Z,99910.81
2022-09-23T06:34:47.043Z,99910.72
2022-09-23T06:37:20.664Z,99915.91
2022-09-23T06:39:50.816Z,99913.19
2022-09-23T06:42:19.108Z,99918.41
2022-09-23T06:44:47.296Z,99918.28
2022-09-23T06:47:15.506Z,99918.28
2022-09-23T06:49:44.149Z,99931.31
2022-09-23T06:52:12.358Z,99932.88
2022-09-23T06:54:40.767Z,99931.09
2022-09-23T06:57:10.512Z,99933.75
2022-09-23T06:59:38.978Z,99931.03
2022-09-23T07:02:08.487Z,99934.59
2022-09-23T07:04:54.209Z,99930.16
2022-09-23T07:07:22.518Z,99934.31
2022-09-23T07:09:51.338Z,99943.00
2022-09-23T07:12:21.168Z,99939.44
2022-09-23T07:14:49.278Z,99944.72
2022-09-23T07:17:17.529Z,99947.31
2022-09-23T07:19:45.657Z,99940.28
2022-09-23T07:22:13.924Z,99951.84
2022-09-23T07:24:42.410Z,99950.16
2022-09-23T07:27:10.559Z,99956.13
2022-09-23T07:29:47.478Z,99956.84
2022-09-23T07:32:17.433Z,99953.16
2022-09-23T07:34:47.309Z,99965.41
2022-09-23T07:37:16.140Z,99953.00
2022-09-23T07:39:44.560Z,99966.97
2022-09-23T07:42:14.369Z,99972.03
2022-09-23T07:44:47.906Z,99971.97
2022-09-23T07:47:17.699Z,99967.47
2022-09-23T07:49:46.998Z,99955.06
2022-09-23T07:52:15.289Z,99972.44
2022-09-23T07:54:43.648Z,99968.75
2022-09-23T07:57:11.997Z,99972.97
2022-09-23T07:59:40.776Z,99976.38
2022-09-23T08:02:12.384Z,99976.22
2022-09-23T08:04:40.918Z,99974.50
2022-09-23T08:07:09.448Z,99973.56
2022-09-23T08:09:41.536Z,99967.38
2022-09-23T08:12:15.800Z,99980.22
2022-09-23T08:14:44.606Z,99977.97
2022-09-23T08:17:15.509Z,99976.75
2022-09-23T08:19:43.947Z,99982.09
2022-09-23T08:22:12.741Z,99983.13
2022-09-23T08:24:41.150Z,99984.84
2022-09-23T08:27:10.375Z,99993.91
2022-09-23T08:29:38.819Z,99992.56
2022-09-23T08:32:07.198Z,99995.50
2022-09-23T08:34:37.031Z,99998.28
2022-09-23T08:37:05.339Z,100002.78
2022-09-23T08:39:33.901Z,100003.84
2022-09-23T08:42:15.747Z,99994.38
2022-09-23T08:44:49.429Z,100006.66
2022-09-23T08:47:24.647Z,100005.78
2022-09-23T08:50:01.986Z,100010.06
2022-09-23T08:52:35.907Z,100009.84
2022-09-23T08:55:05.408Z,100008.78
2022-09-23T08:57:45.996Z,100011.19
2022-09-23T09:00:22.799Z,100011.91
2022-09-23T09:02:51.396Z,100003.75
2022-09-23T09:05:26.309Z,100010.44
2022-09-23T09:07:57.817Z,100009.25
2022-09-23T09:10:28.968Z,100007.31
2022-09-23T09:13:04.738Z,100007.50
2022-09-23T09:15:37.039Z,100009.31
2022-09-23T09:18:08.078Z,100010.09
2022-09-23T09:20:41.528Z,100013.44
2022-09-23T09:23:21.532Z,100010.19
2022-09-23T09:25:51.885Z,100007.50
2022-09-23T09:28:27.856Z,100010.53
2022-09-23T09:31:01.325Z,100007.44
2022-09-23T09:33:33.234Z,100001.84
2022-09-23T09:36:12.086Z,100001.03
2022-09-23T09:38:40.508Z,100000.34
2022-09-23T09:41:15.589Z,100005.78
2022-09-23T09:43:56.410Z,100006.94
2022-09-23T09:46:40.590Z,100011.53
2022-09-23T09:49:15.719Z,99996.84
2022-09-23T09:51:45.988Z,99994.22
2022-09-23T09:54:23.125Z,99990.47
2022-09-23T09:56:52.765Z,99990.94
2022-09-23T09:59:28.545Z,99997.16
2022-09-23T10:02:14.168Z,99991.81
2022-09-23T10:04:42.501Z,99994.66
2022-09-23T10:07:15.000Z,99994.59
2022-09-23T10:09:51.089Z,99977.16
2022-09-23T10:12:21.699Z,99969.59
2022-09-23T10:14:51.963Z,99968.91
2022-09-23T10:17:23.278Z,99973.34
2022-09-23T10:20:00.785Z,99968.19
2022-09-23T10:22:35.364Z,99977.69
2022-09-23T10:25:08.074Z,99968.91
2022-09-23T10:27:38.889Z,99965.00
2022-09-23T10:30:22.317Z,99963.63
2022-09-23T10:32:51.728Z,99971.81
2022-09-23T10:35:22.623Z,99958.50
2022-09-23T10:37:54.396Z,99958.81
2022-09-23T10:40:48.824Z,99954.38
2022-09-23T10:43:58.502Z,99958.88
2022-09-23T10:46:47.756Z,99956.94
2022-09-23T10:49:43.857Z,99950.28
2022-09-23T10:52:25.617Z,99957.78
2022-09-23T10:55:08.227Z,99951.28
2022-09-23T10:57:52.289Z,99953.53
2022-09-23T11:00:23.633Z,99959.72
2022-09-23T11:03:19.963Z,99956.44
2022-09-23T11:06:01.806Z,99956.75
2022-09-23T11:08:44.743Z,99941.94
2022-09-23T11:11:22.475Z,99938.63
2022-09-23T11:14:13.685Z,99941.84
2022-09-23T11:16:55.221Z,99941.47
2022-09-23T11:19:45.294Z,99945.91
2022-09-23T11:22:37.521Z,99948.13
2022-09-23T11:25:24.081Z,99937.47
2022-09-23T11:28:10.063Z,99939.75
2022-09-23T11:30:47.696Z,99937.41
2022-09-23T11:33:43.602Z,99941.19
2022-09-23T11:36:19.090Z,99940.00
2022-09-23T11:38:51.266Z,99934.53
2022-09-23T11:41:23.623Z,99935.59
2022-09-23T11:43:58.678Z,99928.66
2022-09-23T11:46:34.830Z,99935.19
2022-09-23T11:49:10.686Z,99933.03
2022-09-23T11:51:43.746Z,99937.00
2022-09-23T11:54:21.306Z,99930.16
2022-09-23T11:56:54.167Z,99927.72
2022-09-23T11:59:40.237Z,99919.28
2022-09-23T12:02:22.992Z,99918.75
2022-09-23T12:05:01.428Z,99924.75
2022-09-23T12:07:40.781Z,99925.28
2022-09-23T12:10:10.179Z,99924.88
2022-09-23T12:12:49.181Z,99922.44
2022-09-23T12:15:32.041Z,99908.56
2022-09-23T12:18:18.378Z,99911.38
2022-09-23T12:21:27.481Z,99909.97
2022-09-23T12:24:23.062Z,99908.34
2022-09-23T12:26:56.246Z,99905.06
2022-09-23T12:29:26.733Z,99893.06
2022-09-23T12:31:56.824Z,99891.97
2022-09-23T12:34:30.073Z,99883.16
2022-09-23T12:37:04.760Z,99874.31
2022-09-23T12:39:35.581Z,99871.16
2022-09-23T12:42:06.528Z,99883.50
2022-09-23T12:44:42.123Z,99883.47
2022-09-23T12:47:38.604Z,99886.28
2022-09-23T12:50:44.185Z,99884.75
2022-09-23T12:53:51.464Z,99889.19
2022-09-23T12:56:21.396Z,99878.69
2022-09-23T12:59:27.397Z,99878.88
2022-09-23T13:01:56.697Z,99877.38
2022-09-23T13:04:53.167Z,99874.59
2022-09-23T13:07:28.214Z,99872.66
2022-09-23T13:10:03.554Z,99870.78
2022-09-23T13:12:38.375Z,99867.75
2022-09-23T13:15:14.377Z,99864.19
2022-09-23T13:17:43.126Z,99860.16
2022-09-23T13:20:40.539Z,99863.03
2022-09-23T13:23:27.468Z,99857.38
2022-09-23T13:25:58.779Z,99849.84
2022-09-23T13:28:31.106Z,99858.63
2022-09-23T13:31:00.386Z,99860.56
2022-09-23T13:33:35.420Z,99857.78
2022-09-23T13:36:12.770Z,99855.72
2022-09-23T13:38:41.178Z,99846.41
2022-09-23T13:41:17.664Z,99855.72
2022-09-23T13:43:49.398Z,99853.03
2022-09-23T13:46:20.293Z,99861.81
2022-09-23T13:48:56.954Z,99852.38
2022-09-23T13:51:31.098Z,99859.47
2022-09-23T13:54:01.474Z,99854.56
2022-09-23T13:56:31.739Z,99855.72
2022-09-23T13:59:23.740Z,99852.28
2022-09-23T14:01:52.081Z,99848.56
2022-09-23T14:04:26.491Z,99846.28
2022-09-23T14:06:57.112Z,99848.44
2022-09-23T14:09:28.530Z,99832.34
2022-09-23T14:12:00.307Z,99840.13
2022-09-23T14:14:30.547Z,99841.25
2022-09-23T14:17:00.023Z,99851.91
2022-09-23T14:19:28.382Z,99844.84
2022-09-23T14:21:58.896Z,99840.13
2022-09-23T14:24:33.092Z,99847.41
2022-09-23T14:27:12.702Z,99851.31
2022-09-23T14:29:43.462Z,99857.13
2022-09-23T14:32:14.797Z,99850.69
2022-09-23T14:34:46.569Z,99853.84
2022-09-23T14:37:43.200Z,99851.63
2022-09-23T14:40:15.707Z,99845.81
2022-09-23T14:42:47.676Z,99843.78
2022-09-23T14:45:20.255Z,99837.44
2022-09-23T14:47:52.003Z,99843.00
2022-09-23T14:50:40.815Z,99838.19
2022-09-23T14:53:34.757Z,99846.31
2022-09-23T14:56:22.298Z,99837.78
2022-09-23T14:58:54.522Z,99836.72
2022-09-23T15:01:36.706Z,99844.00
2022-09-23T15:04:15.557Z,99831.94
2022-09-23T15:06:49.018Z,99837.09
2022-09-23T15:09:23.713Z,99829.47
2022-09-23T15:11:55.179Z,99820.34
2022-09-23T15:14:37.688Z,99828.09
2022-09-23T15:17:18.284Z,99822.03
2022-09-23T15:19:52.528Z,99821.81
2022-09-23T15:22:21.103Z,99826.94
2022-09-23T15:24:52.728Z,99821.19
2022-09-23T15:27:30.526Z,99834.59
2022-09-23T15:30:14.890Z,99835.97
2022-09-23T15:32:44.451Z,99831.22
2022-09-23T15:35:15.923Z,99823.53
2022-09-23T15:37:44.425Z,99826.94
2022-09-23T15:40:21.056Z,99817.44
2022-09-23T15:42:51.700Z,99811.72
2022-09-23T15:45:22.438Z,99811.31
2022-09-23T15:47:52.391Z,99823.09
2022-09-23T15:50:21.083Z,99817.88
2022-09-23T15:52:49.534Z,99818.84
2022-09-23T15:55:23.669Z,99817.78
2022-09-23T15:57:52.057Z,99817.88
2022-09-23T16:00:21.433Z,99809.78
2022-09-23T16:02:51.254Z,99804.25
2022-09-23T16:05:25.515Z,99806.63
2022-09-23T16:07:53.996Z,99805.34
2022-09-23T16:10:24.263Z,99805.44
2022-09-23T16:12:55.086Z,99815.13
2022-09-23T16:15:24.856Z,99810.34
2022-09-23T16:17:53.156Z,99811.94
2022-09-23T16:20:21.615Z,99806.19
2022-09-23T16:22:55.716Z,99812.56
2022-09-23T16:25:28.466Z,99815.22
2022-09-23T16:27:56.849Z,99818.41
2022-09-23T16:30:25.694Z,99817.50
2022-09-23T16:32:54.576Z,99813.06
2022-09-23T16:35:24.080Z,99819.25
2022-09-23T16:37:52.847Z,99818.81
2022-09-23T16:40:22.867Z,99811.41
2022-09-23T16:42:55.105Z,99809.19
2022-09-23T16:45:23.707Z,99810.75
2022-09-23T16:47:53.088Z,99812.31
2022-09-23T16:50:23.801Z,99810.53
2022-09-23T16:52:54.958Z,99812.16
2022-09-23T16:55:27.504Z,99813.72
2022-09-23T16:57:57.207Z,99821.34
2022-09-23T17:00:43.088Z,99824.94
2022-09-23T17:03:31.188Z,99820.78
2022-09-23T17:06:01.575Z,99819.84
2022-09-23T17:08:32.719Z,99830.28
2022-09-23T17:11:02.017Z,99827.06
2022-09-23T17:13:32.557Z,99836.16
2022-09-23T17:16:01.348Z,99840.00
2022-09-23T17:18:29.918Z,99842.88
2022-09-23T17:21:00.527Z,99845.66
2022-09-23T17:23:29.746Z,99851.09
2022-09-23T17:25:58.556Z,99849.13
2022-09-23T17:28:27.208Z,99856.81
2022-09-23T17:31:00.105Z,99855.31
2022-09-23T17:33:29.388Z,99850.16
2022-09-23T17:36:00.130Z,99845.63
2022-09-23T17:38:29.582Z,99846.91
2022-09-23T17:41:01.383Z,99850.19
2022-09-23T17:43:31.139Z,99847.78
2022-09-23T17:46:05.409Z,99843.97
2022-09-23T17:48:35.568Z,99854.69
2022-09-23T17:51:06.459Z,99855.97
2022-09-23T17:53:36.428Z,99856.47
2022-09-23T17:56:06.957Z,99858.09
2022-09-23T17:58:37.692Z,99858.69
2022-09-23T18:01:10.858Z,99860.91
2022-09-23T18:03:39.668Z,99862.94
2022-09-23T18:06:09.900Z,99873.38
2022-09-23T18:08:39.070Z,99876.63
2022-09-23T18:11:16.268Z,99862.34
2022-09-23T18:13:49.258Z,99866.63
2022-09-23T18:16:19.346Z,99867.31
2022-09-23T18:18:52.191Z,99885.63
2022-09-23T18:21:21.040Z,99883.69
2022-09-23T18:23:49.427Z,99884.53
2022-09-23T18:26:19.170Z,99886.88
2022-09-23T18:28:48.155Z,99886.91
2022-09-23T18:31:18.473Z,99889.47
2022-09-23T18:33:51.648Z,99892.88
2022-09-23T18:36:20.428Z,99894.38
2022-09-23T18:38:49.519Z,99895.22
2022-09-23T18:41:18.470Z,99902.84
2022-09-23T18:43:48.676Z,99903.34
2022-09-23T18:46:20.692Z,99902.69
2022-09-23T18:49:07.281Z,99903.72
2022-09-23T18:51:38.299Z,99911.50
2022-09-23T18:54:08.072Z,99908.88
2022-09-23T18:56:42.032Z,99902.50
2022-09-23T18:59:14.591Z,99900.59
2022-09-23T19:01:46.010Z,99911.03
2022-09-23T19:04:16.829Z,99908.47
2022-09-23T19:06:45.219Z,99904.16
2022-09-23T19:09:14.047Z,99912.03
2022-09-23T19:11:42.620Z,99910.34
2022-09-23T19:14:12.746Z,99911.34
2022-09-23T19:16:43.010Z,99907.78
2022-09-23T19:19:11.301Z,99909.75
2022-09-23T19:21:39.598Z,99913.53
2022-09-23T19:24:09.075Z,99917.16
2022-09-23T19:26:40.275Z,99915.56
2022-09-23T19:29:13.829Z,99913.72
2022-09-23T19:31:44.070Z,99923.59
2022-09-23T19:34:14.997Z,99924.50
2022-09-23T19:36:45.157Z,99923.72
2022-09-23T19:39:18.161Z,99930.69
2022-09-23T19:41:47.394Z,99938.59
2022-09-23T19:44:16.641Z,99936.63
2022-09-23T19:46:55.024Z,99935.47
2022-09-23T19:49:25.434Z,99933.25
2022-09-23T19:51:56.016Z,99936.53
2022-09-23T19:54:26.712Z,99933.59
2022-09-23T19:56:55.160Z,99938.41
2022-09-23T19:59:23.430Z,99940.53
2022-09-23T20:01:53.262Z,99940.00
2022-09-23T20:04:22.242Z,99940.53
2022-09-23T20:06:50.908Z,99940.84
2022-09-23T20:09:19.238Z,99939.06
2022-09-23T20:11:47.985Z,99940.94
2022-09-23T20:14:17.984Z,99941.13
2022-09-23T20:16:46.489Z,99944.88
2022-09-23T20:19:16.166Z,99949.34
2022-09-23T20:21:44.569Z,99951.19
2022-09-23T20:24:13.336Z,99955.00
2022-09-23T20:26:59.238Z,99964.94
2022-09-23T20:29:27.619Z,99965.16
2022-09-23T20:31:58.637Z,99955.81
2022-09-23T20:34:29.939Z,99956.97
2022-09-23T20:36:59.263Z,99961.16
2022-09-23T20:39:27.920Z,99972.63
2022-09-23T20:41:56.218Z,99970.00
2022-09-23T20:44:24.608Z,99964.66
2022-09-23T20:46:53.018Z,99964.72
2022-09-23T20:49:22.719Z,99963.13
2022-09-23T20:51:52.415Z,99968.28
2022-09-23T20:54:20.991Z,99968.16
2022-09-23T20:56:49.289Z,99965.50
2022-09-23T20:59:18.116Z,99963.19
2022-09-23T21:01:47.890Z,99969.56
2022-09-23T21:04:16.616Z,99971.56
2022-09-23T21:06:45.258Z,99965.47
2022-09-23T21:09:14.866Z,99970.00
2022-09-23T21:11:43.108Z,99974.44
2022-09-23T21:14:11.440Z,99977.06
2022-09-23T21:16:40.390Z,99976.13
2022-09-23T21:19:08.817Z,99972.44
2022-09-23T21:21:37.250Z,99981.03
2022-09-23T21:24:36.125Z,99974.84
2022-09-23T21:26:55.447Z,99981.16
2022-09-23T21:29:23.917Z,99979.56
2022-09-23T21:31:52.322Z,99977.06
2022-09-23T21:34:20.567Z,99973.59
2022-09-23T21:36:49.240Z,99979.69
2022-09-23T21:39:17.610Z,99989.22
2022-09-23T21:41:45.900Z,99985.69
2022-09-23T21:44:16.027Z,99986.34
2022-09-23T21:46:44.475Z,99981.16
2022-09-23T21:49:13.253Z,99980.41
2022-09-23T21:51:42.098Z,99987.38
2022-09-23T21:54:14.229Z,99981.88
2022-09-23T21:56:43.187Z,99978.31
2022-09-23T21:59:11.802Z,99983.41
2022-09-23T22:01:44.645Z,99983.09
2022-09-23T22:04:16.719Z,99978.69
2022-09-23T22:06:45.677Z,99982.38
2022-09-23T22:09:16.045Z,99977.28
2022-09-23T22:12:02.352Z,99986.97
2022-09-23T22:14:31.091Z,99985.38
2022-09-23T22:17:03.792Z,99988.06
2022-09-23T22:19:35.314Z,99982.94
2022-09-23T22:22:08.269Z,99985.00
2022-09-23T22:24:36.587Z,99992.09
2022-09-23T22:27:04.848Z,99990.22
2022-09-23T22:29:50.841Z,99989.38
2022-09-23T22:32:38.809Z,99989.41
2022-09-23T22:35:08.155Z,99989.53
2022-09-23T22:37:37.717Z,99990.78
2022-09-23T22:40:08.431Z,99991.78
2022-09-23T22:42:37.693Z,99994.56
2022-09-23T22:45:06.677Z,99998.16
2022-09-23T22:47:37.722Z,99990.38
2022-09-23T22:50:06.589Z,99997.47
2022-09-23T22:52:34.887Z,100000.34
2022-09-23T22:55:03.837Z,99996.22
2022-09-23T22:57:32.348Z,99996.47
2022-09-23T23:00:00.637Z,99989.44
2022-09-23T23:02:29.027Z,99991.16
2022-09-23T23:04:58.619Z,99991.16
2022-09-23T23:07:26.788Z,99993.59
2022-09-23T23:09:55.168Z,99991.16
2022-09-23T23:12:24.238Z,99993.72
2022-09-23T23:14:52.731Z,99989.44
2022-09-23T23:17:21.869Z,99983.34
2022-09-23T23:19:50.688Z,99986.19
2022-09-23T23:22:20.248Z,99992.44
2022-09-23T23:24:48.627Z,99991.56
2022-09-23T23:27:16.697Z,99986.31
2022-09-23T23:29:45.034Z,99989.84
2022-09-23T23:32:13.267Z,99985.44
2022-09-23T23:34:41.627Z,99994.13
2022-09-23T23:37:09.955Z,99988.88
2022-09-23T23:39:39.646Z,99986.13
2022-09-23T23:42:07.967Z,99979.78
2022-09-23T23:44:36.868Z,99985.81
2022-09-23T23:47:05.305Z,99984.22
2022-09-23T23:49:33.717Z,99979.06
2022-09-23T23:52:02.188Z,99984.44
2022-09-23T23:54:31.869Z,99987.06
2022-09-23T23:57:01.346Z,99980.94
2022-09-23T23:59:29.827Z,99985.25
